createdAt,value
2023-08-25T00:01:40.381Z,96.68
2023-08-25T00:04:07.265Z,96.66
2023-08-25T00:06:34.133Z,96.73
2023-08-25T00:09:00.937Z,96.67
2023-08-25T00:11:27.694Z,96.77
2023-08-25T00:13:54.607Z,96.82
2023-08-25T00:16:21.665Z,96.97
2023-08-25T00:18:48.965Z,96.76
2023-08-25T00:21:16.188Z,96.35
2023-08-25T00:23:43.129Z,96.73
2023-08-25T00:26:09.877Z,96.61
2023-08-25T00:28:36.644Z,96.34
2023-08-25T00:31:03.960Z,96.39
2023-08-25T00:33:30.939Z,96.34
2023-08-25T00:35:57.816Z,96.33
2023-08-25T00:38:29.745Z,96.53
2023-08-25T00:40:56.625Z,96.50
2023-08-25T00:43:23.576Z,96.56
2023-08-25T00:45:50.382Z,96.71
2023-08-25T00:48:17.685Z,96.82
2023-08-25T00:50:46.129Z,96.88
2023-08-25T00:53:13.981Z,96.93
2023-08-25T00:55:41.003Z,96.92
2023-08-25T00:58:09.126Z,96.79
2023-08-25T01:00:36.978Z,96.79
2023-08-25T01:03:04.405Z,96.85
2023-08-25T01:05:31.369Z,96.79
2023-08-25T01:07:58.781Z,96.73
2023-08-25T01:10:40.752Z,96.75
2023-08-25T01:13:14.484Z,96.84
2023-08-25T01:15:46.602Z,96.94
2023-08-25T01:18:19.116Z,97.05
2023-08-25T01:20:49.687Z,96.93
2023-08-25T01:23:48.450Z,96.81
2023-08-25T01:26:16.323Z,96.89
2023-08-25T01:28:43.262Z,96.76
2023-08-25T01:31:11.290Z,96.91
2023-08-25T01:33:40.787Z,96.83
2023-08-25T01:36:35.066Z,96.71
2023-08-25T01:39:08.289Z,96.77
2023-08-25T01:41:44.717Z,96.58
2023-08-25T01:44:14.228Z,96.56
2023-08-25T01:46:45.079Z,96.64
2023-08-25T01:49:15.472Z,96.74
2023-08-25T01:51:43.235Z,96.42
2023-08-25T01:54:10.673Z,96.54
2023-08-25T01:56:37.672Z,96.58
2023-08-25T01:59:04.524Z,96.72
2023-08-25T02:01:33.205Z,96.81
2023-08-25T02:04:00.049Z,96.85
2023-08-25T02:06:26.852Z,96.86
2023-08-25T02:08:53.647Z,96.88
2023-08-25T02:11:20.762Z,97.04
2023-08-25T02:13:47.583Z,97.12
2023-08-25T02:16:14.457Z,97.08
2023-08-25T02:18:42.356Z,97.09
2023-08-25T02:21:09.249Z,96.94
2023-08-25T02:23:36.130Z,96.99
2023-08-25T02:26:03.609Z,97.02
2023-08-25T02:28:30.358Z,97.05
2023-08-25T02:30:57.437Z,96.94
2023-08-25T02:33:24.318Z,96.92
2023-08-25T02:35:51.820Z,96.85
2023-08-25T02:38:18.674Z,96.77
2023-08-25T02:40:45.426Z,96.68
2023-08-25T02:43:12.469Z,96.56
2023-08-25T02:45:39.617Z,96.49
2023-08-25T02:48:07.007Z,96.50
2023-08-25T02:50:34.782Z,96.35
2023-08-25T02:53:01.640Z,96.22
2023-08-25T02:55:28.406Z,96.33
2023-08-25T02:57:55.605Z,96.23
2023-08-25T03:00:25.118Z,96.22
2023-08-25T03:02:52.835Z,96.19
2023-08-25T03:05:20.169Z,95.99
2023-08-25T03:07:46.967Z,95.95
2023-08-25T03:10:13.723Z,95.99
2023-08-25T03:12:41.166Z,95.93
2023-08-25T03:15:08.832Z,95.80
2023-08-25T03:17:35.970Z,95.79
2023-08-25T03:20:04.066Z,95.71
2023-08-25T03:22:31.042Z,95.53
2023-08-25T03:24:57.753Z,95.49
2023-08-25T03:27:24.510Z,95.38
2023-08-25T03:29:51.301Z,95.45
2023-08-25T03:32:18.094Z,95.42
2023-08-25T03:34:44.915Z,95.39
2023-08-25T03:37:13.039Z,95.19
2023-08-25T03:39:39.975Z,95.28
2023-08-25T03:42:07.242Z,95.38
2023-08-25T03:44:34.113Z,95.42
2023-08-25T03:47:01.048Z,95.56
2023-08-25T03:49:31.197Z,95.47
2023-08-25T03:51:59.790Z,95.52
2023-08-25T03:54:29.328Z,95.57
2023-08-25T03:56:56.179Z,95.61
2023-08-25T03:59:22.958Z,95.63
2023-08-25T04:01:50.291Z,95.62
2023-08-25T04:04:17.169Z,95.65
2023-08-25T04:06:43.931Z,95.52
2023-08-25T04:09:10.785Z,95.55
2023-08-25T04:11:38.196Z,95.36
2023-08-25T04:14:05.048Z,95.57
2023-08-25T04:16:31.884Z,95.54
2023-08-25T04:18:59.901Z,95.46
2023-08-25T04:21:27.965Z,95.42
2023-08-25T04:23:54.812Z,95.30
2023-08-25T04:26:21.907Z,95.20
2023-08-25T04:28:48.766Z,95.34
2023-08-25T04:31:15.659Z,95.20
2023-08-25T04:33:43.112Z,95.19
2023-08-25T04:36:10.211Z,95.19
2023-08-25T04:38:36.976Z,95.19
2023-08-25T04:41:03.715Z,95.22
2023-08-25T04:43:30.585Z,95.33
2023-08-25T04:45:57.598Z,95.46
2023-08-25T04:48:24.493Z,95.53
2023-08-25T04:50:51.574Z,95.63
2023-08-25T04:53:18.304Z,95.48
2023-08-25T04:55:45.254Z,95.51
2023-08-25T04:58:12.079Z,95.63
2023-08-25T05:00:38.976Z,95.58
2023-08-25T05:03:08.714Z,95.47
2023-08-25T05:05:35.733Z,95.32
2023-08-25T05:08:02.768Z,95.29
2023-08-25T05:10:29.598Z,95.16
2023-08-25T05:12:56.942Z,95.16
2023-08-25T05:15:23.754Z,94.88
2023-08-25T05:17:50.628Z,94.76
2023-08-25T05:20:20.204Z,95.02
2023-08-25T05:22:47.004Z,95.21
2023-08-25T05:25:13.964Z,95.04
2023-08-25T05:27:40.890Z,94.82
2023-08-25T05:30:08.213Z,94.75
2023-08-25T05:32:35.223Z,94.65
2023-08-25T05:35:02.997Z,94.57
2023-08-25T05:37:29.789Z,94.52
2023-08-25T05:39:56.725Z,94.45
2023-08-25T05:42:28.370Z,94.13
2023-08-25T05:44:56.119Z,94.32
2023-08-25T05:47:23.428Z,94.44
2023-08-25T05:49:50.677Z,94.32
2023-08-25T05:52:18.120Z,94.30
2023-08-25T05:54:44.928Z,93.99
2023-08-25T05:57:11.798Z,93.79
2023-08-25T05:59:38.793Z,93.42
2023-08-25T06:02:06.421Z,93.02
2023-08-25T06:04:33.237Z,93.01
2023-08-25T06:06:59.982Z,92.61
2023-08-25T06:09:26.855Z,92.54
2023-08-25T06:11:55.116Z,92.25
2023-08-25T06:14:22.027Z,91.99
2023-08-25T06:16:48.921Z,92.01
2023-08-25T06:19:16.320Z,92.18
2023-08-25T06:21:43.176Z,92.38
2023-08-25T06:24:11.412Z,92.39
2023-08-25T06:26:39.327Z,92.16
2023-08-25T06:33:41.291Z,92.78
2023-08-25T06:36:08.120Z,92.67
2023-08-25T06:38:42.586Z,92.70
2023-08-25T06:41:13.063Z,92.61
2023-08-25T06:43:39.978Z,92.17
2023-08-25T06:46:06.887Z,92.40
2023-08-25T06:48:33.676Z,92.44
2023-08-25T06:51:00.506Z,92.51
2023-08-25T06:53:27.444Z,92.68
2023-08-25T06:55:54.470Z,92.67
2023-08-25T06:58:21.337Z,92.49
2023-08-25T07:00:48.817Z,92.25
2023-08-25T07:03:15.786Z,92.35
2023-08-25T07:05:42.672Z,92.28
2023-08-25T07:08:09.450Z,92.02
2023-08-25T07:10:37.322Z,91.73
2023-08-25T07:13:04.332Z,91.35
2023-08-25T07:15:31.161Z,91.22
2023-08-25T07:17:58.140Z,91.51
2023-08-25T07:20:25.025Z,91.88
2023-08-25T07:22:51.714Z,92.21
2023-08-25T07:25:18.529Z,92.55
2023-08-25T07:27:45.487Z,92.74
2023-08-25T07:30:12.981Z,92.79
2023-08-25T07:32:39.803Z,92.60
2023-08-25T07:35:07.310Z,92.60
2023-08-25T07:37:34.226Z,92.10
2023-08-25T07:40:01.035Z,91.69
2023-08-25T07:42:28.424Z,91.45
2023-08-25T07:44:55.245Z,91.52
2023-08-25T07:47:22.014Z,91.19
2023-08-25T07:49:48.790Z,90.79
2023-08-25T07:52:15.689Z,89.49
2023-08-25T07:54:42.586Z,88.92
2023-08-25T07:57:09.315Z,89.10
2023-08-25T07:59:36.259Z,88.66
2023-08-25T08:02:05.061Z,88.28
2023-08-25T08:04:33.444Z,88.14
2023-08-25T08:07:03.466Z,88.96
2023-08-25T08:09:30.363Z,89.48
2023-08-25T08:11:57.675Z,89.82
2023-08-25T08:14:35.895Z,90.65
2023-08-25T08:17:11.724Z,90.81
2023-08-25T08:19:38.740Z,90.36
2023-08-25T08:22:05.650Z,91.12
2023-08-25T08:24:49.060Z,91.37
2023-08-25T08:27:21.403Z,93.28
2023-08-25T08:29:48.835Z,93.31
2023-08-25T08:32:15.742Z,94.21
2023-08-25T08:34:42.561Z,95.22
2023-08-25T08:37:09.262Z,95.97
2023-08-25T08:39:38.887Z,96.85
2023-08-25T08:42:09.013Z,97.64
2023-08-25T08:44:40.139Z,97.72
2023-08-25T08:47:07.997Z,97.36
2023-08-25T08:49:35.388Z,97.23
2023-08-25T08:52:03.106Z,97.39
2023-08-25T08:54:30.162Z,97.54
2023-08-25T08:56:56.897Z,98.01
2023-08-25T08:59:24.311Z,98.46
2023-08-25T09:01:51.317Z,98.67
2023-08-25T09:04:21.337Z,98.37
2023-08-25T09:06:52.523Z,98.29
2023-08-25T09:09:20.917Z,98.38
2023-08-25T09:11:51.277Z,96.93
2023-08-25T09:14:29.227Z,96.77
2023-08-25T09:17:03.901Z,96.00
2023-08-25T09:19:32.114Z,95.27
2023-08-25T09:21:59.868Z,92.20
2023-08-25T09:24:27.093Z,91.14
2023-08-25T09:26:53.916Z,90.00
2023-08-25T09:29:20.895Z,88.20
2023-08-25T09:31:47.696Z,88.17
2023-08-25T09:34:15.779Z,87.02
2023-08-25T09:36:55.700Z,86.87
2023-08-25T09:39:23.373Z,87.52
2023-08-25T09:41:50.877Z,87.62
2023-08-25T09:44:18.060Z,88.56
2023-08-25T09:46:45.929Z,89.32
2023-08-25T09:49:14.906Z,91.13
2023-08-25T09:51:46.888Z,92.47
2023-08-25T09:54:17.753Z,92.98
2023-08-25T09:56:46.844Z,93.30
2023-08-25T09:59:15.328Z,92.94
2023-08-25T10:01:44.123Z,92.96
2023-08-25T10:04:11.765Z,92.85
2023-08-25T10:06:39.940Z,92.91
2023-08-25T10:09:08.173Z,93.00
2023-08-25T10:11:43.123Z,93.61
2023-08-25T10:14:13.357Z,93.29
2023-08-25T10:16:54.158Z,93.24
2023-08-25T10:19:28.426Z,93.60
2023-08-25T10:21:57.098Z,93.44
2023-08-25T10:24:30.072Z,93.63
2023-08-25T10:26:57.592Z,93.74
2023-08-25T10:29:25.272Z,93.62
2023-08-25T10:31:58.518Z,93.73
2023-08-25T10:34:45.028Z,95.00
2023-08-25T10:37:12.930Z,95.95
2023-08-25T10:39:54.294Z,96.45
2023-08-25T10:42:27.138Z,97.16
2023-08-25T10:45:04.893Z,97.34
2023-08-25T10:47:32.333Z,95.62
2023-08-25T10:50:04.978Z,96.67
2023-08-25T10:52:32.759Z,97.16
2023-08-25T10:55:33.833Z,97.29
2023-08-25T10:58:04.774Z,97.70
2023-08-25T11:00:37.945Z,98.09
2023-08-25T11:03:05.986Z,98.01
2023-08-25T11:05:35.991Z,97.84
2023-08-25T11:08:07.028Z,98.16
2023-08-25T11:10:35.778Z,98.50
2023-08-25T11:13:10.611Z,98.50
2023-08-25T11:15:39.741Z,98.16
2023-08-25T11:18:09.938Z,97.98
2023-08-25T11:20:45.260Z,98.15
2023-08-25T11:23:20.120Z,98.02
2023-08-25T11:25:48.058Z,98.24
2023-08-25T11:28:15.115Z,97.72
2023-08-25T11:30:42.070Z,96.94
2023-08-25T11:33:10.623Z,96.28
2023-08-25T11:35:37.594Z,95.95
2023-08-25T11:38:04.937Z,95.58
2023-08-25T11:40:31.961Z,94.70
2023-08-25T11:42:58.957Z,94.61
2023-08-25T11:45:29.952Z,94.69
2023-08-25T11:47:57.614Z,94.52
2023-08-25T11:50:26.324Z,94.41
2023-08-25T11:52:59.912Z,93.97
2023-08-25T11:55:34.650Z,94.45
2023-08-25T11:58:09.787Z,94.06
2023-08-25T12:00:40.287Z,93.91
2023-08-25T12:03:07.858Z,94.55
2023-08-25T12:05:36.744Z,93.90
2023-08-25T12:08:04.410Z,93.49
2023-08-25T12:10:38.193Z,93.02
2023-08-25T12:13:05.195Z,92.98
2023-08-25T12:15:46.794Z,92.88
2023-08-25T12:18:14.483Z,93.10
2023-08-25T12:20:45.683Z,92.79
2023-08-25T12:23:12.710Z,92.67
2023-08-25T12:25:39.623Z,92.26
2023-08-25T12:28:06.845Z,90.46
2023-08-25T12:30:33.824Z,89.02
2023-08-25T12:33:00.821Z,89.15
2023-08-25T12:35:27.918Z,90.35
2023-08-25T12:37:55.129Z,89.76
2023-08-25T12:40:22.080Z,90.26
2023-08-25T12:42:51.637Z,89.71
2023-08-25T12:45:19.037Z,89.93
2023-08-25T12:47:46.211Z,90.02
2023-08-25T12:50:13.079Z,90.51
2023-08-25T12:52:40.050Z,90.39
2023-08-25T12:55:19.617Z,91.35
2023-08-25T12:57:48.159Z,91.90
2023-08-25T13:00:15.185Z,91.46
2023-08-25T13:02:42.152Z,91.18
2023-08-25T13:05:11.189Z,90.95
2023-08-25T13:07:42.201Z,90.68
2023-08-25T13:10:09.870Z,90.88
2023-08-25T13:12:37.466Z,90.32
2023-08-25T13:15:04.798Z,90.38
2023-08-25T13:17:31.783Z,90.81
2023-08-25T13:19:58.616Z,90.83
2023-08-25T13:22:25.467Z,90.71
2023-08-25T13:24:52.339Z,90.21
2023-08-25T13:27:19.489Z,90.25
2023-08-25T13:29:46.314Z,90.74
2023-08-25T13:32:13.514Z,90.33
2023-08-25T13:34:40.506Z,89.83
2023-08-25T13:37:07.480Z,88.67
2023-08-25T13:39:36.299Z,88.02
2023-08-25T13:42:03.160Z,87.50
2023-08-25T13:44:34.342Z,87.14
2023-08-25T13:47:02.124Z,85.86
2023-08-25T13:49:29.107Z,86.03
2023-08-25T13:51:55.920Z,83.34
2023-08-25T13:54:23.258Z,83.96
2023-08-25T13:56:50.350Z,82.77
2023-08-25T13:59:17.545Z,82.78
2023-08-25T14:01:44.401Z,80.86
2023-08-25T14:04:11.233Z,80.86
2023-08-25T14:06:38.029Z,82.41
2023-08-25T14:09:06.223Z,82.69
2023-08-25T14:11:33.107Z,81.84
2023-08-25T14:14:00.331Z,81.02
2023-08-25T14:16:27.416Z,80.61
2023-08-25T14:18:54.140Z,79.03
2023-08-25T14:21:21.342Z,79.72
2023-08-25T14:23:48.086Z,79.30
2023-08-25T14:26:14.961Z,81.32
2023-08-25T14:28:42.024Z,81.53
2023-08-25T14:31:09.026Z,81.72
2023-08-25T14:33:35.905Z,82.86
2023-08-25T14:36:02.821Z,83.17
2023-08-25T14:38:29.622Z,83.59
2023-08-25T14:40:56.564Z,84.80
2023-08-25T14:43:23.302Z,85.53
2023-08-25T14:45:50.182Z,85.87
2023-08-25T14:48:17.050Z,86.02
2023-08-25T14:50:43.898Z,85.57
2023-08-25T14:53:11.960Z,85.60
2023-08-25T14:55:38.871Z,85.54
2023-08-25T14:58:05.672Z,85.76
2023-08-25T15:00:32.573Z,86.11
2023-08-25T15:03:00.722Z,85.84
2023-08-25T15:05:27.761Z,86.36
2023-08-25T15:07:54.838Z,86.48
2023-08-25T15:10:22.284Z,86.49
2023-08-25T15:12:49.272Z,86.32
2023-08-25T15:15:16.204Z,86.70
2023-08-25T15:17:43.087Z,86.76
2023-08-25T15:20:10.411Z,87.03
2023-08-25T15:22:37.131Z,86.85
2023-08-25T15:25:05.407Z,87.03
2023-08-25T15:27:32.445Z,86.75
2023-08-25T15:29:59.274Z,86.21
2023-08-25T15:32:26.100Z,86.25
2023-08-25T15:34:52.931Z,86.01
2023-08-25T15:37:20.025Z,85.82
2023-08-25T15:39:46.958Z,85.06
2023-08-25T15:42:15.812Z,85.66
2023-08-25T15:44:43.462Z,85.31
2023-08-25T15:47:10.297Z,85.74
2023-08-25T15:49:37.294Z,85.83
2023-08-25T15:52:04.621Z,86.81
2023-08-25T15:54:31.267Z,87.74
2023-08-25T15:56:58.048Z,88.28
2023-08-25T15:59:25.187Z,88.86
2023-08-25T16:01:52.582Z,88.94
2023-08-25T16:04:19.360Z,87.73
2023-08-25T16:06:46.156Z,87.39
2023-08-25T16:09:13.493Z,87.07
2023-08-25T16:11:40.974Z,86.81
2023-08-25T16:14:07.917Z,86.38
2023-08-25T16:16:34.822Z,86.27
2023-08-25T16:19:01.755Z,85.90
2023-08-25T16:21:28.626Z,85.85
2023-08-25T16:23:55.442Z,85.78
2023-08-25T16:26:22.318Z,85.57
2023-08-25T16:28:49.665Z,86.74
2023-08-25T16:31:17.006Z,87.02
2023-08-25T16:33:44.186Z,87.60
2023-08-25T16:36:13.672Z,88.25
2023-08-25T16:38:40.573Z,89.45
2023-08-25T16:41:08.934Z,89.61
2023-08-25T16:43:35.818Z,90.60
2023-08-25T16:46:04.596Z,90.40
2023-08-25T16:48:31.930Z,90.83
2023-08-25T16:50:58.704Z,90.15
2023-08-25T16:53:25.568Z,89.45
2023-08-25T16:55:52.420Z,89.52
2023-08-25T16:58:19.448Z,89.61
2023-08-25T17:00:49.425Z,89.92
2023-08-25T17:03:16.435Z,90.07
2023-08-25T17:05:43.304Z,89.64
2023-08-25T17:08:10.155Z,89.47
2023-08-25T17:10:37.447Z,89.34
2023-08-25T17:13:04.509Z,89.02
2023-08-25T17:15:37.985Z,89.54
2023-08-25T17:18:06.304Z,90.15
2023-08-25T17:20:33.439Z,90.22
2023-08-25T17:23:00.595Z,90.57
2023-08-25T17:25:27.435Z,90.36
2023-08-25T17:27:55.089Z,90.62
2023-08-25T17:30:22.237Z,90.64
2023-08-25T17:32:49.149Z,90.76
2023-08-25T17:35:16.075Z,91.06
2023-08-25T17:37:42.988Z,91.08
2023-08-25T17:40:10.042Z,91.56
2023-08-25T17:42:36.845Z,91.26
2023-08-25T17:45:03.958Z,91.68
2023-08-25T17:47:31.176Z,92.17
2023-08-25T17:49:58.108Z,92.14
2023-08-25T17:52:25.006Z,91.96
2023-08-25T17:58:40.715Z,92.56
2023-08-25T18:01:08.870Z,92.51
2023-08-25T18:03:40.170Z,92.30
2023-08-25T18:06:07.412Z,92.57
2023-08-25T18:08:37.081Z,92.85
2023-08-25T18:11:04.133Z,92.65
2023-08-25T18:13:32.091Z,92.72
2023-08-25T18:15:59.636Z,92.77
2023-08-25T18:18:26.776Z,92.93
2023-08-25T18:21:02.346Z,93.18
2023-08-25T18:23:31.893Z,93.06
2023-08-25T18:25:59.157Z,93.30
2023-08-25T18:28:26.175Z,92.95
2023-08-25T18:31:01.656Z,92.43
2023-08-25T18:33:29.406Z,92.85
2023-08-25T18:35:57.178Z,92.26
2023-08-25T18:38:24.139Z,92.88
2023-08-25T18:40:51.161Z,91.76
2023-08-25T18:43:18.015Z,91.50
2023-08-25T18:45:44.817Z,91.49
2023-08-25T18:48:11.716Z,91.90
2023-08-25T18:50:38.568Z,92.07
2023-08-25T18:53:05.428Z,92.54
2023-08-25T18:55:32.298Z,90.68
2023-08-25T18:57:59.147Z,90.50
2023-08-25T19:00:25.992Z,90.17
2023-08-25T19:02:53.139Z,89.69
2023-08-25T19:05:21.218Z,89.60
2023-08-25T19:07:48.304Z,89.51
2023-08-25T19:10:20.505Z,89.99
2023-08-25T19:12:50.757Z,89.74
2023-08-25T19:15:17.628Z,89.22
2023-08-25T19:17:44.452Z,88.44
2023-08-25T19:20:17.093Z,88.57
2023-08-25T19:22:43.853Z,87.26
2023-08-25T19:25:10.630Z,87.51
2023-08-25T19:27:37.358Z,87.07
2023-08-25T19:30:04.667Z,87.15
2023-08-25T19:32:31.583Z,87.36
2023-08-25T19:34:58.586Z,87.37
2023-08-25T19:37:26.383Z,87.51
2023-08-25T19:39:53.863Z,87.69
2023-08-25T19:42:20.854Z,88.00
2023-08-25T19:44:50.406Z,87.98
2023-08-25T19:47:17.532Z,88.23
2023-08-25T19:49:44.411Z,88.42
2023-08-25T19:52:11.884Z,88.79
2023-08-25T19:54:38.988Z,89.07
2023-08-25T19:57:06.263Z,89.17
2023-08-25T19:59:33.967Z,89.30
2023-08-25T20:02:01.950Z,89.89
2023-08-25T20:04:28.918Z,90.23
2023-08-25T20:06:55.799Z,90.52
2023-08-25T20:09:23.216Z,90.75
2023-08-25T20:11:50.025Z,90.97
2023-08-25T20:14:16.792Z,91.42
2023-08-25T20:16:43.710Z,91.27
2023-08-25T20:19:10.576Z,91.54
2023-08-25T20:21:37.755Z,91.70
2023-08-25T20:24:04.911Z,91.97
2023-08-25T20:26:31.718Z,91.78
2023-08-25T20:29:00.078Z,92.26
2023-08-25T20:31:27.004Z,91.85
2023-08-25T20:33:53.822Z,91.70
2023-08-25T20:36:20.573Z,91.75
2023-08-25T20:38:49.482Z,91.68
2023-08-25T20:41:16.256Z,92.26
2023-08-25T20:43:43.070Z,92.53
2023-08-25T20:46:17.935Z,92.67
2023-08-25T20:48:50.574Z,92.43
2023-08-25T20:51:23.254Z,92.41
2023-08-25T20:53:51.458Z,92.50
2023-08-25T20:56:21.322Z,91.73
2023-08-25T20:58:48.375Z,92.11
2023-08-25T21:01:15.188Z,91.09
2023-08-25T21:03:42.191Z,91.77
2023-08-25T21:06:09.143Z,91.01
2023-08-25T21:08:36.579Z,91.32
2023-08-25T21:11:03.433Z,89.62
2023-08-25T21:13:30.230Z,89.05
2023-08-25T21:15:58.723Z,88.88
2023-08-25T21:18:25.625Z,88.94
2023-08-25T21:20:54.515Z,89.22
2023-08-25T21:23:22.623Z,89.00
2023-08-25T21:25:57.341Z,89.46
2023-08-25T21:28:26.341Z,88.99
2023-08-25T21:31:03.148Z,89.33
2023-08-25T21:33:32.621Z,89.06
2023-08-25T21:35:59.435Z,89.25
2023-08-25T21:38:26.248Z,89.41
2023-08-25T21:40:53.122Z,89.47
2023-08-25T21:43:19.862Z,89.14
2023-08-25T21:45:48.159Z,89.47
2023-08-25T21:48:15.498Z,89.74
2023-08-25T21:50:47.258Z,89.45
2023-08-25T21:53:14.104Z,89.72
2023-08-25T21:55:41.605Z,89.31
2023-08-25T21:58:08.845Z,89.22
2023-08-25T22:00:35.869Z,89.18
2023-08-25T22:03:03.799Z,89.14
2023-08-25T22:05:30.806Z,89.23
2023-08-25T22:07:57.777Z,88.86
2023-08-25T22:10:24.729Z,89.19
2023-08-25T22:12:54.663Z,89.17
2023-08-25T22:15:22.457Z,89.31
2023-08-25T22:17:49.279Z,89.14
2023-08-25T22:20:16.077Z,89.07
2023-08-25T22:22:42.880Z,88.93
2023-08-25T22:25:10.293Z,89.02
2023-08-25T22:27:37.912Z,88.96
2023-08-25T22:30:05.546Z,89.13
2023-08-25T22:35:03.298Z,89.55
2023-08-25T22:37:30.237Z,89.45
2023-08-25T22:39:56.992Z,89.85
2023-08-25T22:42:23.721Z,89.95
2023-08-25T22:44:50.481Z,89.95
2023-08-25T22:47:17.441Z,88.87
2023-08-25T22:49:44.302Z,89.41
2023-08-25T22:52:11.793Z,89.07
2023-08-25T22:54:38.660Z,88.94
2023-08-25T22:57:05.621Z,88.63
2023-08-25T22:59:32.459Z,88.87
2023-08-25T23:02:00.722Z,88.63
2023-08-25T23:04:27.674Z,88.74
2023-08-25T23:06:54.529Z,88.55
2023-08-25T23:09:21.890Z,88.46
2023-08-25T23:11:49.943Z,88.49
2023-08-25T23:14:16.808Z,88.67
2023-08-25T23:16:43.621Z,88.87
2023-08-25T23:19:12.276Z,88.58
2023-08-25T23:21:40.867Z,88.68
2023-08-25T23:24:07.889Z,88.20
2023-08-25T23:26:36.361Z,88.61
2023-08-25T23:29:03.479Z,88.55
2023-08-25T23:31:30.427Z,89.20
2023-08-25T23:33:57.440Z,88.92
2023-08-25T23:36:24.306Z,89.28
2023-08-25T23:38:51.021Z,89.29
2023-08-25T23:41:17.764Z,88.95
2023-08-25T23:43:44.820Z,88.92
2023-08-25T23:46:11.603Z,89.09
2023-08-25T23:48:38.449Z,88.86
2023-08-25T23:51:05.219Z,89.02
2023-08-25T23:53:32.263Z,89.01
2023-08-25T23:55:59.231Z,89.30
